Rochester, IL (62563)

7:46 AM CDT on April 21, 2015 (GMT -0500)
Sattley St. | | Change Station
CLOSE
Current Station
Personal Weather Station
Location: Rochester, IL
Elevation: 577 ft
Nearby Weather Stations

Elev 577 ft 39.75 °N, 89.53 °W | Updated 26 minutes ago

Clear
Clear
44.2 °F
Feels Like 42 °F
N
3.7
Wind Variable Wind from WNW

Today
High -- | Low -- °F
--% Chance of Precip.
Yesterday
High -- | Low -- °F
Precip. -- in
6:12 AM 7:42 PM
Waxing Crescent, 10% visible
Pressure 29.79 in
Visibility 10.0 miles
Clouds Few 12000 ft
Windchill 42 °F
Dew Point 36 °F
Humidity 74%
Rainfall 0.00 in
Snow Depth Not available.
UV 0 out of 12
Pollen 11.10 out of 12
Air Quality Not available.
Flu Activity Regional
METAR KSPI 211152Z 25011KT 10SM FEW120 06/00 A2978 RMK AO2 SLP086 T00560000 10083 20044 53007

More Conditions Fewer Conditions

Pressure 29.79 in
Visibility 10.0 miles
Clouds Few 12000 ft
Windchill 42 °F
Dew Point 36 °F
Humidity 74%
Rainfall 0.00 in
Snow Depth Not available.
UV 0 out of 12
Pollen 11.10 out of 12
Air Quality Not available.
Flu Activity Regional
METAR KSPI 211152Z 25011KT 10SM FEW120 06/00 A2978 RMK AO2 SLP086 T00560000 10083 20044 53007

More Conditions Fewer Conditions

10-Day Weather Forecast

Almanac

Astronomy

Apr. 21, 2015 Rise Set
Actual Time
Civil Twilight
Nautical Twilight
Astronomical Twilight
Moon
Length of Visible Light
Length of Day
Tomorrow will be .
, % of the Moon is Illuminated

Today's Extremes

State Highs State Lows

Community

WunderPhotos

Upload Photos

1,815,361 photos uploaded!

WunderBlogs® & News

Nearby

Air Quality

  Air Quality AQ Index Pollutant
Not available.

Snow Depth

Station Depth Elevation

Earthquake Activity

City Distance Mag. Time & Date
Minimum magnitude displayed is 2.5.

Coastal Water Temperatures

Place Temperature

Stations

Nearby Weather Stations

Station Location Temp. Windchill Dew Point Humidity Wind Precip. Elev Updated Type